sensor_id;sensor_type;location;lat;lon;timestamp;P1;durP1;ratioP1;P2;durP2;ratioP2
15968;SDS011;8085;53.472;9.794;2023-01-15T00:00:58;2.53;;;0.83;;
15968;SDS011;8085;53.472;9.794;2023-01-15T00:03:25;3.93;;;1.20;;
15968;SDS011;8085;53.472;9.794;2023-01-15T00:05:51;3.40;;;0.77;;
15968;SDS011;8085;53.472;9.794;2023-01-15T00:08:18;5.97;;;1.10;;
15968;SDS011;8085;53.472;9.794;2023-01-15T00:10:45;4.30;;;0.97;;
15968;SDS011;8085;53.472;9.794;2023-01-15T00:13:12;4.13;;;0.60;;
15968;SDS011;8085;53.472;9.794;2023-01-15T00:15:39;4.30;;;0.87;;
15968;SDS011;8085;53.472;9.794;2023-01-15T00:18:07;5.27;;;0.90;;
15968;SDS011;8085;53.472;9.794;2023-01-15T00:20:34;4.17;;;1.10;;
15968;SDS011;8085;53.472;9.794;2023-01-15T00:23:01;5.03;;;1.00;;
15968;SDS011;8085;53.472;9.794;2023-01-15T00:25:27;3.07;;;0.70;;
15968;SDS011;8085;53.472;9.794;2023-01-15T00:28:08;4.97;;;1.30;;
15968;SDS011;8085;53.472;9.794;2023-01-15T00:30:38;4.90;;;1.20;;
15968;SDS011;8085;53.472;9.794;2023-01-15T00:33:07;3.17;;;0.70;;
15968;SDS011;8085;53.472;9.794;2023-01-15T00:35:34;3.73;;;0.93;;
15968;SDS011;8085;53.472;9.794;2023-01-15T00:38:01;5.60;;;0.97;;
15968;SDS011;8085;53.472;9.794;2023-01-15T00:40:28;4.03;;;0.87;;
15968;SDS011;8085;53.472;9.794;2023-01-15T00:42:55;5.37;;;1.10;;
15968;SDS011;8085;53.472;9.794;2023-01-15T00:45:21;3.30;;;0.77;;
15968;SDS011;8085;53.472;9.794;2023-01-15T00:47:48;3.43;;;0.60;;
15968;SDS011;8085;53.472;9.794;2023-01-15T00:50:16;2.60;;;0.70;;
15968;SDS011;8085;53.472;9.794;2023-01-15T00:52:43;4.03;;;0.87;;
15968;SDS011;8085;53.472;9.794;2023-01-15T00:55:10;2.47;;;0.80;;
15968;SDS011;8085;53.472;9.794;2023-01-15T00:57:37;3.40;;;1.07;;
15968;SDS011;8085;53.472;9.794;2023-01-15T01:00:04;1.53;;;0.63;;
15968;SDS011;8085;53.472;9.794;2023-01-15T01:02:32;1.83;;;1.00;;
15968;SDS011;8085;53.472;9.794;2023-01-15T01:04:59;3.43;;;1.00;;
15968;SDS011;8085;53.472;9.794;2023-01-15T01:07:28;6.50;;;1.23;;
15968;SDS011;8085;53.472;9.794;2023-01-15T01:09:54;2.97;;;1.10;;
15968;SDS011;8085;53.472;9.794;2023-01-15T01:12:21;6.20;;;0.90;;
15968;SDS011;8085;53.472;9.794;2023-01-15T01:14:48;5.17;;;1.20;;
15968;SDS011;8085;53.472;9.794;2023-01-15T01:17:15;4.33;;;1.00;;
15968;SDS011;8085;53.472;9.794;2023-01-15T01:19:42;2.37;;;0.80;;
15968;SDS011;8085;53.472;9.794;2023-01-15T01:22:08;4.07;;;1.10;;
15968;SDS011;8085;53.472;9.794;2023-01-15T01:24:37;3.73;;;1.10;;
15968;SDS011;8085;53.472;9.794;2023-01-15T01:27:03;3.73;;;1.00;;
15968;SDS011;8085;53.472;9.794;2023-01-15T01:29:30;2.63;;;0.97;;
15968;SDS011;8085;53.472;9.794;2023-01-15T01:31:57;5.63;;;0.90;;
15968;SDS011;8085;53.472;9.794;2023-01-15T01:34:24;6.97;;;1.37;;
15968;SDS011;8085;53.472;9.794;2023-01-15T01:36:50;3.73;;;1.17;;
15968;SDS011;8085;53.472;9.794;2023-01-15T01:39:18;4.67;;;1.43;;
15968;SDS011;8085;53.472;9.794;2023-01-15T01:41:46;4.00;;;1.00;;
15968;SDS011;8085;53.472;9.794;2023-01-15T01:47:34;5.33;;;1.07;;
15968;SDS011;8085;53.472;9.794;2023-01-15T01:50:02;10.10;;;1.40;;
15968;SDS011;8085;53.472;9.794;2023-01-15T01:52:35;2.87;;;1.07;;
15968;SDS011;8085;53.472;9.794;2023-01-15T01:55:06;4.93;;;1.20;;
15968;SDS011;8085;53.472;9.794;2023-01-15T01:57:35;5.10;;;1.30;;
15968;SDS011;8085;53.472;9.794;2023-01-15T02:00:04;5.17;;;1.53;;
15968;SDS011;8085;53.472;9.794;2023-01-15T02:02:31;7.40;;;1.43;;
15968;SDS011;8085;53.472;9.794;2023-01-15T02:04:58;1.87;;;0.93;;
15968;SDS011;8085;53.472;9.794;2023-01-15T02:07:26;4.57;;;1.53;;
15968;SDS011;8085;53.472;9.794;2023-01-15T02:09:55;4.80;;;1.20;;
15968;SDS011;8085;53.472;9.794;2023-01-15T02:12:23;6.57;;;1.53;;
15968;SDS011;8085;53.472;9.794;2023-01-15T02:14:58;1.97;;;1.10;;
15968;SDS011;8085;53.472;9.794;2023-01-15T02:17:33;3.17;;;1.13;;
15968;SDS011;8085;53.472;9.794;2023-01-15T02:20:14;3.30;;;1.20;;
15968;SDS011;8085;53.472;9.794;2023-01-15T02:22:51;7.87;;;1.47;;
15968;SDS011;8085;53.472;9.794;2023-01-15T02:25:27;7.47;;;1.40;;
15968;SDS011;8085;53.472;9.794;2023-01-15T02:28:07;7.30;;;1.43;;
15968;SDS011;8085;53.472;9.794;2023-01-15T02:30:41;4.20;;;1.20;;
15968;SDS011;8085;53.472;9.794;2023-01-15T02:33:13;4.60;;;1.20;;
15968;SDS011;8085;53.472;9.794;2023-01-15T02:35:43;4.33;;;1.33;;
15968;SDS011;8085;53.472;9.794;2023-01-15T02:38:15;5.80;;;1.30;;
15968;SDS011;8085;53.472;9.794;2023-01-15T02:40:44;4.97;;;1.10;;
15968;SDS011;8085;53.472;9.794;2023-01-15T02:43:14;11.90;;;1.60;;
15968;SDS011;8085;53.472;9.794;2023-01-15T02:45:43;7.83;;;1.33;;
15968;SDS011;8085;53.472;9.794;2023-01-15T02:48:13;4.77;;;1.13;;
15968;SDS011;8085;53.472;9.794;2023-01-15T02:50:44;7.33;;;1.27;;
15968;SDS011;8085;53.472;9.794;2023-01-15T02:53:17;6.57;;;1.50;;
15968;SDS011;8085;53.472;9.794;2023-01-15T02:55:48;3.80;;;1.10;;
15968;SDS011;8085;53.472;9.794;2023-01-15T02:58:19;5.53;;;1.17;;
15968;SDS011;8085;53.472;9.794;2023-01-15T03:00:48;7.40;;;1.73;;
15968;SDS011;8085;53.472;9.794;2023-01-15T03:03:20;5.57;;;1.40;;
15968;SDS011;8085;53.472;9.794;2023-01-15T03:05:56;7.53;;;1.27;;
15968;SDS011;8085;53.472;9.794;2023-01-15T03:08:26;5.93;;;1.63;;
15968;SDS011;8085;53.472;9.794;2023-01-15T03:10:55;9.70;;;1.43;;
15968;SDS011;8085;53.472;9.794;2023-01-15T03:13:32;5.80;;;1.40;;
15968;SDS011;8085;53.472;9.794;2023-01-15T03:16:10;7.57;;;1.30;;
15968;SDS011;8085;53.472;9.794;2023-01-15T03:19:01;9.80;;;1.50;;
15968;SDS011;8085;53.472;9.794;2023-01-15T03:21:35;9.07;;;1.67;;
15968;SDS011;8085;53.472;9.794;2023-01-15T03:24:09;7.70;;;1.37;;
15968;SDS011;8085;53.472;9.794;2023-01-15T03:26:38;6.77;;;1.40;;
15968;SDS011;8085;53.472;9.794;2023-01-15T03:29:07;7.07;;;1.27;;
15968;SDS011;8085;53.472;9.794;2023-01-15T03:31:35;4.23;;;1.30;;
15968;SDS011;8085;53.472;9.794;2023-01-15T03:34:02;5.53;;;1.57;;
15968;SDS011;8085;53.472;9.794;2023-01-15T03:36:31;10.20;;;1.57;;
15968;SDS011;8085;53.472;9.794;2023-01-15T03:38:58;9.87;;;1.63;;
15968;SDS011;8085;53.472;9.794;2023-01-15T03:41:27;6.23;;;1.23;;
15968;SDS011;8085;53.472;9.794;2023-01-15T03:44:03;10.27;;;1.63;;
15968;SDS011;8085;53.472;9.794;2023-01-15T03:46:50;8.40;;;1.40;;
15968;SDS011;8085;53.472;9.794;2023-01-15T03:49:25;7.87;;;1.60;;
15968;SDS011;8085;53.472;9.794;2023-01-15T03:52:04;8.73;;;1.23;;
15968;SDS011;8085;53.472;9.794;2023-01-15T03:54:38;12.03;;;1.73;;
15968;SDS011;8085;53.472;9.794;2023-01-15T03:57:11;9.40;;;1.50;;
15968;SDS011;8085;53.472;9.794;2023-01-15T03:59:45;7.70;;;1.50;;
15968;SDS011;8085;53.472;9.794;2023-01-15T04:02:16;8.20;;;1.67;;
15968;SDS011;8085;53.472;9.794;2023-01-15T04:04:44;5.70;;;1.77;;
15968;SDS011;8085;53.472;9.794;2023-01-15T04:07:13;8.07;;;1.50;;
15968;SDS011;8085;53.472;9.794;2023-01-15T04:09:40;9.77;;;1.77;;
15968;SDS011;8085;53.472;9.794;2023-01-15T04:12:08;6.90;;;1.60;;
15968;SDS011;8085;53.472;9.794;2023-01-15T04:14:35;7.27;;;1.50;;
15968;SDS011;8085;53.472;9.794;2023-01-15T04:17:03;7.57;;;1.70;;
15968;SDS011;8085;53.472;9.794;2023-01-15T04:19:30;6.47;;;1.77;;
15968;SDS011;8085;53.472;9.794;2023-01-15T04:21:57;8.33;;;1.43;;
15968;SDS011;8085;53.472;9.794;2023-01-15T04:24:24;8.03;;;2.00;;
15968;SDS011;8085;53.472;9.794;2023-01-15T04:26:50;12.03;;;1.60;;
15968;SDS011;8085;53.472;9.794;2023-01-15T04:29:17;8.47;;;1.63;;
15968;SDS011;8085;53.472;9.794;2023-01-15T04:31:44;6.87;;;1.50;;
15968;SDS011;8085;53.472;9.794;2023-01-15T04:34:12;8.10;;;1.60;;
15968;SDS011;8085;53.472;9.794;2023-01-15T04:36:39;5.77;;;1.60;;
15968;SDS011;8085;53.472;9.794;2023-01-15T04:39:08;7.07;;;1.70;;
15968;SDS011;8085;53.472;9.794;2023-01-15T04:41:35;8.17;;;1.70;;
15968;SDS011;8085;53.472;9.794;2023-01-15T04:44:19;10.40;;;2.07;;
15968;SDS011;8085;53.472;9.794;2023-01-15T04:46:46;7.77;;;1.50;;
15968;SDS011;8085;53.472;9.794;2023-01-15T04:49:15;8.80;;;1.53;;
15968;SDS011;8085;53.472;9.794;2023-01-15T04:51:43;8.93;;;1.50;;
15968;SDS011;8085;53.472;9.794;2023-01-15T04:54:11;6.80;;;1.20;;
15968;SDS011;8085;53.472;9.794;2023-01-15T04:56:39;9.97;;;1.80;;
15968;SDS011;8085;53.472;9.794;2023-01-15T04:59:07;7.40;;;1.50;;
15968;SDS011;8085;53.472;9.794;2023-01-15T05:01:34;9.00;;;1.57;;
15968;SDS011;8085;53.472;9.794;2023-01-15T05:04:02;12.10;;;2.23;;
15968;SDS011;8085;53.472;9.794;2023-01-15T05:06:30;10.10;;;1.63;;
15968;SDS011;8085;53.472;9.794;2023-01-15T05:08:58;7.00;;;1.57;;
15968;SDS011;8085;53.472;9.794;2023-01-15T05:11:26;9.43;;;2.07;;
15968;SDS011;8085;53.472;9.794;2023-01-15T05:13:53;9.60;;;1.83;;
15968;SDS011;8085;53.472;9.794;2023-01-15T05:16:21;11.10;;;2.33;;
15968;SDS011;8085;53.472;9.794;2023-01-15T05:18:50;8.57;;;1.50;;
15968;SDS011;8085;53.472;9.794;2023-01-15T05:21:18;7.60;;;1.50;;
15968;SDS011;8085;53.472;9.794;2023-01-15T05:23:47;9.03;;;2.00;;
15968;SDS011;8085;53.472;9.794;2023-01-15T05:26:14;8.17;;;1.80;;
15968;SDS011;8085;53.472;9.794;2023-01-15T05:28:42;7.33;;;2.03;;
15968;SDS011;8085;53.472;9.794;2023-01-15T05:31:10;8.47;;;2.07;;
15968;SDS011;8085;53.472;9.794;2023-01-15T05:33:38;7.80;;;1.53;;
15968;SDS011;8085;53.472;9.794;2023-01-15T05:36:07;7.33;;;1.83;;
15968;SDS011;8085;53.472;9.794;2023-01-15T05:38:35;6.37;;;1.80;;
15968;SDS011;8085;53.472;9.794;2023-01-15T05:41:04;8.37;;;1.90;;
15968;SDS011;8085;53.472;9.794;2023-01-15T05:43:52;9.00;;;1.90;;
15968;SDS011;8085;53.472;9.794;2023-01-15T05:46:20;7.53;;;1.97;;
15968;SDS011;8085;53.472;9.794;2023-01-15T05:48:47;6.43;;;1.70;;
15968;SDS011;8085;53.472;9.794;2023-01-15T05:51:14;5.77;;;1.87;;
15968;SDS011;8085;53.472;9.794;2023-01-15T05:53:41;8.77;;;2.10;;
15968;SDS011;8085;53.472;9.794;2023-01-15T05:56:09;10.80;;;2.10;;
15968;SDS011;8085;53.472;9.794;2023-01-15T05:58:36;8.23;;;1.97;;
15968;SDS011;8085;53.472;9.794;2023-01-15T06:01:05;8.47;;;1.93;;
15968;SDS011;8085;53.472;9.794;2023-01-15T06:03:33;6.07;;;1.73;;
15968;SDS011;8085;53.472;9.794;2023-01-15T06:05:59;7.20;;;1.67;;
15968;SDS011;8085;53.472;9.794;2023-01-15T06:08:26;8.70;;;1.83;;
15968;SDS011;8085;53.472;9.794;2023-01-15T06:10:53;8.83;;;1.70;;
15968;SDS011;8085;53.472;9.794;2023-01-15T06:13:21;10.37;;;2.00;;
15968;SDS011;8085;53.472;9.794;2023-01-15T06:15:48;8.60;;;1.50;;
15968;SDS011;8085;53.472;9.794;2023-01-15T06:18:15;4.93;;;1.63;;
15968;SDS011;8085;53.472;9.794;2023-01-15T06:20:42;11.60;;;2.40;;
15968;SDS011;8085;53.472;9.794;2023-01-15T06:23:09;10.33;;;2.47;;
15968;SDS011;8085;53.472;9.794;2023-01-15T06:25:36;8.30;;;1.77;;
15968;SDS011;8085;53.472;9.794;2023-01-15T06:28:02;5.50;;;1.67;;
15968;SDS011;8085;53.472;9.794;2023-01-15T06:30:31;7.40;;;1.80;;
15968;SDS011;8085;53.472;9.794;2023-01-15T06:32:58;5.37;;;1.50;;
15968;SDS011;8085;53.472;9.794;2023-01-15T06:35:25;5.03;;;1.43;;
15968;SDS011;8085;53.472;9.794;2023-01-15T06:37:52;8.13;;;2.03;;
15968;SDS011;8085;53.472;9.794;2023-01-15T06:40:19;6.40;;;1.83;;
15968;SDS011;8085;53.472;9.794;2023-01-15T06:42:47;8.53;;;2.23;;
15968;SDS011;8085;53.472;9.794;2023-01-15T06:45:35;9.10;;;2.20;;
15968;SDS011;8085;53.472;9.794;2023-01-15T06:48:29;6.53;;;1.67;;
15968;SDS011;8085;53.472;9.794;2023-01-15T06:50:56;8.10;;;2.23;;
15968;SDS011;8085;53.472;9.794;2023-01-15T06:53:23;7.67;;;1.93;;
15968;SDS011;8085;53.472;9.794;2023-01-15T06:55:50;6.97;;;1.80;;
15968;SDS011;8085;53.472;9.794;2023-01-15T06:58:17;8.73;;;1.87;;
15968;SDS011;8085;53.472;9.794;2023-01-15T07:00:47;9.00;;;2.03;;
15968;SDS011;8085;53.472;9.794;2023-01-15T07:03:19;8.33;;;1.90;;
15968;SDS011;8085;53.472;9.794;2023-01-15T07:05:46;7.73;;;1.87;;
15968;SDS011;8085;53.472;9.794;2023-01-15T07:08:13;9.90;;;1.90;;
15968;SDS011;8085;53.472;9.794;2023-01-15T07:10:40;9.53;;;2.20;;
15968;SDS011;8085;53.472;9.794;2023-01-15T07:13:07;6.37;;;2.00;;
15968;SDS011;8085;53.472;9.794;2023-01-15T07:15:36;6.10;;;1.70;;
15968;SDS011;8085;53.472;9.794;2023-01-15T07:18:04;8.17;;;1.93;;
15968;SDS011;8085;53.472;9.794;2023-01-15T07:20:31;10.40;;;2.13;;
15968;SDS011;8085;53.472;9.794;2023-01-15T07:22:58;8.07;;;1.80;;
15968;SDS011;8085;53.472;9.794;2023-01-15T07:25:25;7.63;;;1.77;;
15968;SDS011;8085;53.472;9.794;2023-01-15T07:27:52;8.37;;;1.80;;
15968;SDS011;8085;53.472;9.794;2023-01-15T07:30:19;14.57;;;2.53;;
15968;SDS011;8085;53.472;9.794;2023-01-15T07:32:45;9.10;;;2.20;;
15968;SDS011;8085;53.472;9.794;2023-01-15T07:35:14;10.23;;;2.20;;
15968;SDS011;8085;53.472;9.794;2023-01-15T07:37:40;7.80;;;1.77;;
15968;SDS011;8085;53.472;9.794;2023-01-15T07:40:08;7.53;;;1.90;;
15968;SDS011;8085;53.472;9.794;2023-01-15T07:42:36;5.37;;;1.70;;
15968;SDS011;8085;53.472;9.794;2023-01-15T07:45:20;7.70;;;1.73;;
15968;SDS011;8085;53.472;9.794;2023-01-15T07:48:01;7.63;;;2.13;;
15968;SDS011;8085;53.472;9.794;2023-01-15T07:50:46;11.93;;;2.37;;
15968;SDS011;8085;53.472;9.794;2023-01-15T07:53:13;9.00;;;1.93;;
15968;SDS011;8085;53.472;9.794;2023-01-15T07:55:40;7.53;;;1.87;;
15968;SDS011;8085;53.472;9.794;2023-01-15T07:58:07;9.10;;;1.83;;
15968;SDS011;8085;53.472;9.794;2023-01-15T08:00:34;9.40;;;2.10;;
15968;SDS011;8085;53.472;9.794;2023-01-15T08:03:00;10.50;;;1.93;;
15968;SDS011;8085;53.472;9.794;2023-01-15T08:05:27;5.87;;;1.97;;
15968;SDS011;8085;53.472;9.794;2023-01-15T08:07:55;11.33;;;2.73;;
15968;SDS011;8085;53.472;9.794;2023-01-15T08:10:22;5.50;;;1.63;;
15968;SDS011;8085;53.472;9.794;2023-01-15T08:12:50;10.17;;;2.00;;
15968;SDS011;8085;53.472;9.794;2023-01-15T08:15:39;6.53;;;1.83;;
15968;SDS011;8085;53.472;9.794;2023-01-15T08:18:12;8.17;;;1.83;;
15968;SDS011;8085;53.472;9.794;2023-01-15T08:20:39;12.83;;;2.07;;
15968;SDS011;8085;53.472;9.794;2023-01-15T08:23:07;8.97;;;1.97;;
15968;SDS011;8085;53.472;9.794;2023-01-15T08:25:34;7.07;;;1.90;;
15968;SDS011;8085;53.472;9.794;2023-01-15T08:28:01;15.30;;;1.80;;
15968;SDS011;8085;53.472;9.794;2023-01-15T08:30:28;7.77;;;2.10;;
15968;SDS011;8085;53.472;9.794;2023-01-15T08:32:58;9.13;;;2.30;;
15968;SDS011;8085;53.472;9.794;2023-01-15T08:35:27;10.40;;;1.70;;
15968;SDS011;8085;53.472;9.794;2023-01-15T08:37:53;10.37;;;1.70;;
15968;SDS011;8085;53.472;9.794;2023-01-15T08:40:22;7.23;;;1.83;;
15968;SDS011;8085;53.472;9.794;2023-01-15T08:42:48;10.73;;;2.07;;
15968;SDS011;8085;53.472;9.794;2023-01-15T08:45:15;9.37;;;1.90;;
15968;SDS011;8085;53.472;9.794;2023-01-15T08:47:42;6.60;;;1.70;;
15968;SDS011;8085;53.472;9.794;2023-01-15T08:50:09;10.03;;;1.73;;
15968;SDS011;8085;53.472;9.794;2023-01-15T08:52:37;9.47;;;2.20;;
15968;SDS011;8085;53.472;9.794;2023-01-15T08:55:04;7.33;;;2.33;;
15968;SDS011;8085;53.472;9.794;2023-01-15T08:57:33;9.63;;;2.00;;
15968;SDS011;8085;53.472;9.794;2023-01-15T09:00:01;5.90;;;1.80;;
15968;SDS011;8085;53.472;9.794;2023-01-15T09:02:29;7.53;;;1.83;;
15968;SDS011;8085;53.472;9.794;2023-01-15T09:04:56;6.37;;;1.80;;
15968;SDS011;8085;53.472;9.794;2023-01-15T09:07:22;6.53;;;1.80;;
15968;SDS011;8085;53.472;9.794;2023-01-15T09:09:49;9.20;;;2.13;;
15968;SDS011;8085;53.472;9.794;2023-01-15T09:12:16;10.83;;;2.20;;
15968;SDS011;8085;53.472;9.794;2023-01-15T09:14:44;7.03;;;1.60;;
15968;SDS011;8085;53.472;9.794;2023-01-15T09:17:11;8.30;;;1.80;;
15968;SDS011;8085;53.472;9.794;2023-01-15T09:19:38;9.23;;;2.00;;
15968;SDS011;8085;53.472;9.794;2023-01-15T09:22:04;5.40;;;1.30;;
15968;SDS011;8085;53.472;9.794;2023-01-15T09:24:31;5.43;;;1.57;;
15968;SDS011;8085;53.472;9.794;2023-01-15T09:26:58;6.10;;;1.97;;
15968;SDS011;8085;53.472;9.794;2023-01-15T09:29:24;7.97;;;1.73;;
15968;SDS011;8085;53.472;9.794;2023-01-15T09:31:53;6.30;;;1.50;;
15968;SDS011;8085;53.472;9.794;2023-01-15T09:34:19;10.10;;;1.80;;
15968;SDS011;8085;53.472;9.794;2023-01-15T09:36:46;10.73;;;1.70;;
15968;SDS011;8085;53.472;9.794;2023-01-15T09:39:14;4.87;;;1.27;;
15968;SDS011;8085;53.472;9.794;2023-01-15T09:41:49;5.17;;;1.37;;
15968;SDS011;8085;53.472;9.794;2023-01-15T09:44:39;5.73;;;1.60;;
15968;SDS011;8085;53.472;9.794;2023-01-15T09:47:17;4.87;;;1.27;;
15968;SDS011;8085;53.472;9.794;2023-01-15T09:49:59;4.27;;;0.93;;
15968;SDS011;8085;53.472;9.794;2023-01-15T09:52:47;5.73;;;1.40;;
15968;SDS011;8085;53.472;9.794;2023-01-15T09:55:28;4.40;;;1.10;;
15968;SDS011;8085;53.472;9.794;2023-01-15T09:57:58;5.93;;;1.10;;
15968;SDS011;8085;53.472;9.794;2023-01-15T10:00:28;4.93;;;1.23;;
15968;SDS011;8085;53.472;9.794;2023-01-15T10:03:03;5.27;;;1.30;;
15968;SDS011;8085;53.472;9.794;2023-01-15T10:05:34;5.40;;;1.43;;
15968;SDS011;8085;53.472;9.794;2023-01-15T10:08:09;6.60;;;1.47;;
15968;SDS011;8085;53.472;9.794;2023-01-15T10:10:43;5.23;;;1.60;;
15968;SDS011;8085;53.472;9.794;2023-01-15T10:13:14;4.77;;;1.60;;
15968;SDS011;8085;53.472;9.794;2023-01-15T10:15:45;5.53;;;1.80;;
15968;SDS011;8085;53.472;9.794;2023-01-15T10:18:15;5.60;;;1.30;;
15968;SDS011;8085;53.472;9.794;2023-01-15T10:20:47;4.60;;;1.30;;
15968;SDS011;8085;53.472;9.794;2023-01-15T10:23:31;5.30;;;1.70;;
15968;SDS011;8085;53.472;9.794;2023-01-15T10:26:02;7.37;;;1.50;;
15968;SDS011;8085;53.472;9.794;2023-01-15T10:28:45;6.97;;;1.60;;
15968;SDS011;8085;53.472;9.794;2023-01-15T10:31:25;5.60;;;1.40;;
15968;SDS011;8085;53.472;9.794;2023-01-15T10:34:11;5.97;;;1.60;;
15968;SDS011;8085;53.472;9.794;2023-01-15T10:36:54;5.37;;;1.23;;
15968;SDS011;8085;53.472;9.794;2023-01-15T10:39:26;4.90;;;1.30;;
15968;SDS011;8085;53.472;9.794;2023-01-15T10:41:59;7.90;;;1.40;;
15968;SDS011;8085;53.472;9.794;2023-01-15T10:44:39;8.30;;;1.80;;
15968;SDS011;8085;53.472;9.794;2023-01-15T10:47:13;7.00;;;1.33;;
15968;SDS011;8085;53.472;9.794;2023-01-15T10:49:44;8.27;;;1.60;;
15968;SDS011;8085;53.472;9.794;2023-01-15T10:52:15;7.23;;;1.60;;
15968;SDS011;8085;53.472;9.794;2023-01-15T10:54:50;5.87;;;1.50;;
15968;SDS011;8085;53.472;9.794;2023-01-15T10:57:22;5.67;;;1.20;;
15968;SDS011;8085;53.472;9.794;2023-01-15T10:59:55;7.63;;;1.50;;
15968;SDS011;8085;53.472;9.794;2023-01-15T11:02:24;5.77;;;1.53;;
15968;SDS011;8085;53.472;9.794;2023-01-15T11:04:57;3.97;;;1.03;;
15968;SDS011;8085;53.472;9.794;2023-01-15T11:07:25;5.70;;;1.17;;
15968;SDS011;8085;53.472;9.794;2023-01-15T11:10:01;6.57;;;1.60;;
15968;SDS011;8085;53.472;9.794;2023-01-15T11:12:30;6.07;;;1.50;;
15968;SDS011;8085;53.472;9.794;2023-01-15T11:15:16;8.17;;;1.50;;
15968;SDS011;8085;53.472;9.794;2023-01-15T11:18:07;3.23;;;1.30;;
15968;SDS011;8085;53.472;9.794;2023-01-15T11:20:58;5.27;;;1.37;;
15968;SDS011;8085;53.472;9.794;2023-01-15T11:23:26;4.97;;;1.40;;
15968;SDS011;8085;53.472;9.794;2023-01-15T11:25:54;4.63;;;1.17;;
15968;SDS011;8085;53.472;9.794;2023-01-15T11:28:29;5.07;;;1.37;;
15968;SDS011;8085;53.472;9.794;2023-01-15T11:30:59;7.20;;;1.53;;
15968;SDS011;8085;53.472;9.794;2023-01-15T11:33:27;6.03;;;1.23;;
15968;SDS011;8085;53.472;9.794;2023-01-15T11:35:57;5.87;;;1.20;;
15968;SDS011;8085;53.472;9.794;2023-01-15T11:38:26;4.73;;;1.40;;
15968;SDS011;8085;53.472;9.794;2023-01-15T11:40:54;5.37;;;1.50;;
15968;SDS011;8085;53.472;9.794;2023-01-15T11:43:24;4.20;;;1.27;;
15968;SDS011;8085;53.472;9.794;2023-01-15T11:46:22;4.63;;;1.40;;
15968;SDS011;8085;53.472;9.794;2023-01-15T11:49:08;1.30;;;0.50;;
15968;SDS011;8085;53.472;9.794;2023-01-15T11:51:54;1.57;;;0.50;;
15968;SDS011;8085;53.472;9.794;2023-01-15T11:54:23;1.40;;;0.40;;
15968;SDS011;8085;53.472;9.794;2023-01-15T11:56:51;1.83;;;0.47;;
15968;SDS011;8085;53.472;9.794;2023-01-15T11:59:20;2.60;;;0.70;;
15968;SDS011;8085;53.472;9.794;2023-01-15T12:01:48;2.37;;;0.40;;
15968;SDS011;8085;53.472;9.794;2023-01-15T12:04:27;0.90;;;0.30;;
15968;SDS011;8085;53.472;9.794;2023-01-15T12:06:59;0.30;;;0.30;;
15968;SDS011;8085;53.472;9.794;2023-01-15T12:12:21;1.80;;;0.67;;
15968;SDS011;8085;53.472;9.794;2023-01-15T12:15:01;2.23;;;0.73;;
15968;SDS011;8085;53.472;9.794;2023-01-15T12:20:55;5.03;;;1.27;;
15968;SDS011;8085;53.472;9.794;2023-01-15T12:23:43;4.20;;;1.20;;
15968;SDS011;8085;53.472;9.794;2023-01-15T12:26:24;4.07;;;1.33;;
15968;SDS011;8085;53.472;9.794;2023-01-15T12:28:56;5.17;;;1.27;;
15968;SDS011;8085;53.472;9.794;2023-01-15T12:31:31;6.47;;;1.37;;
15968;SDS011;8085;53.472;9.794;2023-01-15T12:34:05;6.77;;;1.53;;
15968;SDS011;8085;53.472;9.794;2023-01-15T12:36:40;8.27;;;1.47;;
15968;SDS011;8085;53.472;9.794;2023-01-15T12:39:15;5.57;;;1.47;;
15968;SDS011;8085;53.472;9.794;2023-01-15T12:41:45;9.40;;;1.70;;
15968;SDS011;8085;53.472;9.794;2023-01-15T12:44:34;7.97;;;1.77;;
15968;SDS011;8085;53.472;9.794;2023-01-15T12:47:22;7.53;;;1.97;;
15968;SDS011;8085;53.472;9.794;2023-01-15T12:49:54;7.73;;;2.13;;
15968;SDS011;8085;53.472;9.794;2023-01-15T12:52:26;7.13;;;1.70;;
15968;SDS011;8085;53.472;9.794;2023-01-15T12:55:00;9.90;;;2.00;;
15968;SDS011;8085;53.472;9.794;2023-01-15T12:57:35;5.17;;;1.80;;
15968;SDS011;8085;53.472;9.794;2023-01-15T13:00:06;6.13;;;1.47;;
15968;SDS011;8085;53.472;9.794;2023-01-15T13:02:41;3.93;;;1.43;;
15968;SDS011;8085;53.472;9.794;2023-01-15T13:05:26;11.80;;;1.80;;
15968;SDS011;8085;53.472;9.794;2023-01-15T13:07:58;8.97;;;1.90;;
15968;SDS011;8085;53.472;9.794;2023-01-15T13:10:31;3.67;;;1.27;;
15968;SDS011;8085;53.472;9.794;2023-01-15T13:13:04;4.70;;;1.50;;
15968;SDS011;8085;53.472;9.794;2023-01-15T13:15:42;5.33;;;1.63;;
15968;SDS011;8085;53.472;9.794;2023-01-15T13:18:23;4.93;;;1.80;;
15968;SDS011;8085;53.472;9.794;2023-01-15T13:20:56;8.27;;;1.60;;
15968;SDS011;8085;53.472;9.794;2023-01-15T13:23:29;7.27;;;1.80;;
15968;SDS011;8085;53.472;9.794;2023-01-15T13:26:20;6.37;;;1.60;;
15968;SDS011;8085;53.472;9.794;2023-01-15T13:29:07;3.07;;;1.40;;
15968;SDS011;8085;53.472;9.794;2023-01-15T13:31:45;9.90;;;1.70;;
15968;SDS011;8085;53.472;9.794;2023-01-15T13:34:23;5.70;;;1.97;;
15968;SDS011;8085;53.472;9.794;2023-01-15T13:36:55;8.67;;;1.27;;
15968;SDS011;8085;53.472;9.794;2023-01-15T13:39:31;7.43;;;1.70;;
15968;SDS011;8085;53.472;9.794;2023-01-15T13:42:04;3.23;;;1.27;;
15968;SDS011;8085;53.472;9.794;2023-01-15T13:44:54;6.10;;;1.30;;
15968;SDS011;8085;53.472;9.794;2023-01-15T13:47:21;7.13;;;1.43;;
15968;SDS011;8085;53.472;9.794;2023-01-15T13:49:51;4.27;;;1.40;;
15968;SDS011;8085;53.472;9.794;2023-01-15T13:52:21;5.27;;;1.40;;
15968;SDS011;8085;53.472;9.794;2023-01-15T13:54:51;8.47;;;1.87;;
15968;SDS011;8085;53.472;9.794;2023-01-15T13:57:22;6.23;;;1.90;;
15968;SDS011;8085;53.472;9.794;2023-01-15T13:59:50;5.60;;;1.37;;
15968;SDS011;8085;53.472;9.794;2023-01-15T14:02:22;6.03;;;1.40;;
15968;SDS011;8085;53.472;9.794;2023-01-15T14:04:50;6.77;;;1.60;;
15968;SDS011;8085;53.472;9.794;2023-01-15T14:07:17;6.30;;;1.60;;
15968;SDS011;8085;53.472;9.794;2023-01-15T14:09:47;4.00;;;1.47;;
15968;SDS011;8085;53.472;9.794;2023-01-15T14:12:17;4.40;;;1.40;;
15968;SDS011;8085;53.472;9.794;2023-01-15T14:15:05;7.77;;;1.73;;
15968;SDS011;8085;53.472;9.794;2023-01-15T14:17:50;5.20;;;1.30;;
15968;SDS011;8085;53.472;9.794;2023-01-15T14:20:37;10.60;;;1.70;;
15968;SDS011;8085;53.472;9.794;2023-01-15T14:23:29;4.53;;;1.30;;
15968;SDS011;8085;53.472;9.794;2023-01-15T14:26:09;7.63;;;1.47;;
15968;SDS011;8085;53.472;9.794;2023-01-15T14:28:48;5.80;;;1.37;;
15968;SDS011;8085;53.472;9.794;2023-01-15T14:31:37;6.23;;;1.63;;
15968;SDS011;8085;53.472;9.794;2023-01-15T14:34:12;8.10;;;1.67;;
15968;SDS011;8085;53.472;9.794;2023-01-15T14:36:49;7.07;;;1.60;;
15968;SDS011;8085;53.472;9.794;2023-01-15T14:39:23;8.60;;;1.60;;
15968;SDS011;8085;53.472;9.794;2023-01-15T14:41:54;4.60;;;1.37;;
15968;SDS011;8085;53.472;9.794;2023-01-15T14:44:43;5.37;;;1.47;;
15968;SDS011;8085;53.472;9.794;2023-01-15T14:47:17;8.00;;;1.37;;
15968;SDS011;8085;53.472;9.794;2023-01-15T14:49:58;6.70;;;1.67;;
15968;SDS011;8085;53.472;9.794;2023-01-15T14:52:26;4.50;;;1.30;;
15968;SDS011;8085;53.472;9.794;2023-01-15T14:54:53;6.77;;;1.40;;
15968;SDS011;8085;53.472;9.794;2023-01-15T14:57:21;5.07;;;1.70;;
15968;SDS011;8085;53.472;9.794;2023-01-15T14:59:52;6.47;;;1.50;;
15968;SDS011;8085;53.472;9.794;2023-01-15T15:02:22;5.13;;;1.57;;
15968;SDS011;8085;53.472;9.794;2023-01-15T15:04:55;5.53;;;1.47;;
15968;SDS011;8085;53.472;9.794;2023-01-15T15:07:24;7.77;;;1.70;;
15968;SDS011;8085;53.472;9.794;2023-01-15T15:09:54;6.67;;;1.50;;
15968;SDS011;8085;53.472;9.794;2023-01-15T15:12:28;8.90;;;1.40;;
15968;SDS011;8085;53.472;9.794;2023-01-15T15:15:02;7.27;;;1.50;;
15968;SDS011;8085;53.472;9.794;2023-01-15T15:17:36;5.70;;;1.70;;
15968;SDS011;8085;53.472;9.794;2023-01-15T15:20:15;9.13;;;1.63;;
15968;SDS011;8085;53.472;9.794;2023-01-15T15:22:46;7.00;;;1.83;;
15968;SDS011;8085;53.472;9.794;2023-01-15T15:25:18;8.00;;;1.50;;
15968;SDS011;8085;53.472;9.794;2023-01-15T15:27:59;12.90;;;2.87;;
15968;SDS011;8085;53.472;9.794;2023-01-15T15:30:28;8.07;;;2.63;;
15968;SDS011;8085;53.472;9.794;2023-01-15T15:32:58;5.07;;;1.60;;
15968;SDS011;8085;53.472;9.794;2023-01-15T15:35:26;11.27;;;2.10;;